Time;durP1;ratioP1;P1;durP2;ratioP2;P2;SDS_P1;SDS_P2;PMS_P1;PMS_P2;Temp;Humidity;BMP_temperature;BMP_pressure;BME280_temperature;BME280_humidity;BME280_pressure;Samples;Min_cycle;Max_cycle;Signal;HPM_P1;HPM_P2
2024/02/01 00:01:50;;;;;;;3.55;1.80;;;20.00;50.80;;;;;;5098002;28;20025;-67
2024/02/01 00:04:15;;;;;;;2.72;1.77;;;20.10;50.80;;;;;;5080058;28;20056;-67
2024/02/01 00:06:41;;;;;;;2.80;1.92;;;20.10;50.90;;;;;;5081254;28;20032;-67
2024/02/01 00:09:07;;;;;;;3.00;1.90;;;20.00;50.80;;;;;;5080854;28;20044;-67
2024/02/01 00:11:33;;;;;;;2.50;1.70;;;20.00;50.80;;;;;;5080890;28;20532;-68
2024/02/01 00:13:58;;;;;;;2.10;1.40;;;20.00;50.80;;;;;;5080461;28;20081;-66
2024/02/01 00:16:24;;;;;;;2.38;1.65;;;20.00;50.80;;;;;;5081023;28;20062;-68
2024/02/01 00:18:49;;;;;;;2.47;1.60;;;20.00;50.80;;;;;;5080093;28;20476;-68
2024/02/01 00:21:18;;;;;;;2.95;1.60;;;20.00;50.80;;;;;;5080878;28;20032;-69
2024/02/01 00:23:43;;;;;;;2.60;1.67;;;20.00;50.80;;;;;;5061052;28;20485;-68
2024/02/01 00:26:10;;;;;;;3.60;1.73;;;20.00;50.90;;;;;;5078880;28;20081;-69
2024/02/01 00:28:35;;;;;;;2.70;1.80;;;20.00;50.90;;;;;;5078467;28;20532;-68
2024/02/01 00:31:01;;;;;;;2.50;1.80;;;20.00;50.90;;;;;;5082244;28;20115;-69
2024/02/01 00:33:27;;;;;;;2.50;1.60;;;20.00;50.90;;;;;;5078764;28;20434;-67
2024/02/01 00:35:52;;;;;;;2.67;1.80;;;20.00;50.90;;;;;;5077336;28;20477;-68
2024/02/01 00:38:18;;;;;;;2.03;1.48;;;20.00;50.90;;;;;;5079976;28;20096;-69
2024/02/01 00:40:43;;;;;;;2.80;1.70;;;20.00;50.90;;;;;;5078881;28;20025;-69
2024/02/01 00:43:09;;;;;;;2.55;1.67;;;20.00;50.90;;;;;;5079250;28;20496;-69
2024/02/01 00:45:35;;;;;;;2.50;1.70;;;19.90;50.80;;;;;;5079877;28;20012;-69
2024/02/01 00:48:00;;;;;;;2.47;1.63;;;19.90;50.90;;;;;;5079921;28;20078;-69
2024/02/01 00:50:26;;;;;;;2.67;1.77;;;19.90;50.80;;;;;;5082831;28;20032;-69
2024/02/01 00:52:51;;;;;;;2.90;1.50;;;19.90;50.90;;;;;;5080135;28;20367;-69
2024/02/01 00:55:17;;;;;;;2.30;1.60;;;19.90;50.90;;;;;;5076316;28;20043;-69
2024/02/01 00:57:43;;;;;;;2.50;1.63;;;19.90;50.90;;;;;;5080394;28;20028;-68
2024/02/01 01:00:09;;;;;;;2.58;1.80;;;19.90;50.90;;;;;;5078954;28;20498;-68
2024/02/01 01:02:34;;;;;;;2.45;1.73;;;19.90;50.90;;;;;;5079531;28;20051;-65
2024/02/01 01:05:00;;;;;;;2.33;1.60;;;19.90;50.90;;;;;;5080541;28;20384;-65
2024/02/01 01:07:25;;;;;;;2.60;1.60;;;19.90;50.90;;;;;;5080022;28;20016;-66
2024/02/01 01:09:52;;;;;;;2.50;1.55;;;19.90;50.90;;;;;;5069753;28;20032;-66
2024/02/01 01:12:19;;;;;;;2.35;1.65;;;19.90;50.90;;;;;;5081733;28;20401;-62
2024/02/01 01:14:45;;;;;;;2.78;1.70;;;19.90;50.90;;;;;;5095124;28;20484;-64
2024/02/01 01:17:10;;;;;;;2.45;1.70;;;19.90;50.90;;;;;;5060872;28;20085;-62
2024/02/01 01:19:36;;;;;;;2.53;1.65;;;19.90;50.90;;;;;;5069625;28;20139;-62
2024/02/01 01:22:02;;;;;;;2.65;1.70;;;19.80;50.90;;;;;;5079737;28;20055;-66
2024/02/01 01:24:27;;;;;;;2.47;1.70;;;19.80;50.90;;;;;;5078173;28;20468;-65
2024/02/01 01:26:53;;;;;;;2.80;1.50;;;19.80;50.90;;;;;;5077227;28;20365;-66
2024/02/01 01:29:18;;;;;;;2.42;1.60;;;19.80;50.90;;;;;;5077989;28;20042;-65
2024/02/01 01:31:46;;;;;;;2.20;1.50;;;19.80;50.90;;;;;;5078812;28;20151;-66
2024/02/01 01:34:12;;;;;;;2.72;1.60;;;19.80;50.90;;;;;;5079192;28;20482;-65
2024/02/01 01:36:37;;;;;;;2.67;1.65;;;19.80;50.90;;;;;;5078385;28;20063;-66
2024/02/01 01:39:03;;;;;;;2.25;1.52;;;19.80;50.90;;;;;;5078950;28;20028;-66
2024/02/01 01:41:29;;;;;;;2.35;1.77;;;19.80;50.90;;;;;;5058894;28;20468;-66
2024/02/01 01:43:54;;;;;;;2.78;1.50;;;19.80;50.90;;;;;;5060729;28;20024;-66
2024/02/01 01:46:20;;;;;;;2.38;1.80;;;19.80;50.90;;;;;;5080442;28;20039;-65
2024/02/01 01:48:46;;;;;;;2.35;1.50;;;19.80;50.90;;;;;;5078108;28;20469;-65
2024/02/01 01:51:14;;;;;;;2.45;1.73;;;19.80;50.90;;;;;;5078398;28;20165;-65
2024/02/01 01:53:40;;;;;;;2.60;1.60;;;19.80;50.90;;;;;;5079835;28;20020;-65
2024/02/01 01:56:07;;;;;;;2.05;1.50;;;19.80;50.90;;;;;;5076255;28;20480;-65
2024/02/01 01:58:35;;;;;;;2.30;1.60;;;19.80;50.90;;;;;;5079718;28;20045;-66
2024/02/01 02:01:01;;;;;;;3.63;1.75;;;19.80;50.90;;;;;;5079315;28;20047;-66
2024/02/01 02:03:27;;;;;;;2.80;1.60;;;19.80;50.90;;;;;;5069720;28;20032;-66
2024/02/01 02:05:53;;;;;;;2.70;1.70;;;19.80;50.90;;;;;;5061187;28;20021;-66
2024/02/01 02:08:19;;;;;;;2.33;1.58;;;19.80;50.90;;;;;;5077074;28;20513;-65
2024/02/01 02:10:44;;;;;;;2.35;1.67;;;19.80;50.90;;;;;;5077777;28;20130;-66
2024/02/01 02:13:11;;;;;;;3.08;1.60;;;19.80;50.90;;;;;;5078446;28;20086;-64
2024/02/01 02:15:37;;;;;;;2.30;1.50;;;19.80;50.90;;;;;;5079166;28;20029;-62
2024/02/01 02:18:09;;;;;;;2.83;1.90;;;19.70;50.90;;;;;;5079136;28;20039;-64
2024/02/01 02:20:38;;;;;;;2.03;1.40;;;19.70;50.90;;;;;;5061643;28;20035;-62
2024/02/01 02:23:04;;;;;;;2.27;1.60;;;19.80;50.90;;;;;;5093926;28;20507;-65
2024/02/01 02:25:30;;;;;;;2.28;1.50;;;19.70;50.90;;;;;;5077522;28;20273;-66
2024/02/01 02:27:55;;;;;;;2.33;1.60;;;19.80;51.00;;;;;;5078458;28;20020;-66
2024/02/01 02:30:21;;;;;;;2.33;1.60;;;19.70;50.90;;;;;;5059676;28;20950;-66
2024/02/01 02:32:47;;;;;;;2.67;1.50;;;19.70;50.90;;;;;;5079157;28;20462;-62
2024/02/01 02:35:14;;;;;;;2.63;1.73;;;19.70;50.90;;;;;;5078582;28;20100;-61
2024/02/01 02:37:49;;;;;;;2.25;1.55;;;19.70;50.90;;;;;;5078143;28;20478;-63
2024/02/01 02:40:17;;;;;;;2.00;1.50;;;19.70;50.90;;;;;;5079017;28;20028;-62
2024/02/01 02:42:43;;;;;;;2.05;1.30;;;19.70;50.90;;;;;;5078002;28;20036;-62
2024/02/01 02:45:10;;;;;;;2.08;1.45;;;19.70;50.90;;;;;;5076059;28;20028;-62
2024/02/01 02:47:36;;;;;;;2.22;1.60;;;19.70;50.90;;;;;;5078255;28;20024;-63
2024/02/01 02:50:02;;;;;;;1.85;1.40;;;19.70;51.40;;;;;;5094170;28;20028;-63
2024/02/01 02:52:27;;;;;;;2.20;1.50;;;19.70;50.90;;;;;;5069043;28;20074;-62
2024/02/01 02:54:53;;;;;;;2.33;1.60;;;19.70;50.90;;;;;;5060069;28;20039;-63
2024/02/01 02:57:18;;;;;;;2.13;1.42;;;19.70;50.90;;;;;;5075924;28;20116;-63
2024/02/01 02:59:44;;;;;;;2.00;1.38;;;19.70;50.90;;;;;;5078289;28;20123;-63
2024/02/01 03:02:10;;;;;;;2.08;1.35;;;19.70;50.90;;;;;;5079531;28;20032;-64
2024/02/01 03:04:36;;;;;;;2.33;1.60;;;19.70;50.90;;;;;;5080468;28;20016;-63
2024/02/01 03:07:02;;;;;;;2.63;1.60;;;19.70;50.90;;;;;;5060515;28;20435;-63
2024/02/01 03:09:27;;;;;;;2.40;1.67;;;19.60;50.90;;;;;;5059301;28;20031;-63
2024/02/01 03:11:53;;;;;;;2.22;1.45;;;19.60;50.90;;;;;;5077621;28;20074;-62
2024/02/01 03:14:19;;;;;;;2.50;1.60;;;19.60;50.90;;;;;;5078801;28;20028;-63
2024/02/01 03:16:46;;;;;;;2.10;1.55;;;19.70;50.90;;;;;;5078324;28;20667;-64
2024/02/01 03:19:12;;;;;;;2.05;1.40;;;19.60;50.90;;;;;;5062754;28;20032;-63
2024/02/01 03:21:38;;;;;;;2.08;1.45;;;19.60;50.90;;;;;;5063426;28;20051;-66
2024/02/01 03:24:04;;;;;;;2.30;1.60;;;19.60;50.90;;;;;;5073144;28;20090;-66
2024/02/01 03:26:34;;;;;;;2.00;1.50;;;19.60;50.90;;;;;;5083643;28;20024;-66
2024/02/01 03:29:00;;;;;;;2.28;1.60;;;19.60;50.90;;;;;;5072889;28;20098;-65
2024/02/01 03:31:33;;;;;;;2.30;1.60;;;19.60;50.90;;;;;;5083451;28;20023;-68
2024/02/01 03:34:10;;;;;;;2.17;1.50;;;19.60;50.90;;;;;;5081617;28;20077;-67
2024/02/01 03:36:38;;;;;;;2.20;1.40;;;19.60;50.90;;;;;;5071257;28;20078;-67
2024/02/01 03:39:22;;;;;;;1.80;1.40;;;19.60;50.90;;;;;;5080524;28;20028;-67
2024/02/01 03:41:49;;;;;;;2.08;1.58;;;19.60;51.50;;;;;;5078951;28;20103;-65
2024/02/01 03:44:15;;;;;;;2.17;1.48;;;19.60;51.00;;;;;;5080754;28;20725;-66
2024/02/01 03:46:42;;;;;;;2.50;1.60;;;19.60;50.90;;;;;;5082131;28;20048;-65
2024/02/01 03:49:08;;;;;;;2.50;1.70;;;19.60;51.00;;;;;;5081128;28;20031;-66
2024/02/01 03:51:37;;;;;;;2.33;1.60;;;19.60;50.90;;;;;;5080303;28;20477;-66
2024/02/01 03:54:05;;;;;;;2.38;1.45;;;19.60;51.00;;;;;;5081253;28;20115;-65
2024/02/01 03:56:32;;;;;;;2.33;1.40;;;19.60;51.00;;;;;;5079521;28;20078;-66
2024/02/01 03:59:01;;;;;;;2.42;1.60;;;19.60;51.50;;;;;;5082096;28;20089;-65
2024/02/01 04:01:27;;;;;;;2.55;1.75;;;19.60;51.00;;;;;;5080880;28;20024;-66
2024/02/01 04:03:54;;;;;;;1.95;1.33;;;19.60;51.00;;;;;;5079986;28;20062;-65
2024/02/01 04:06:22;;;;;;;3.05;1.60;;;19.60;51.00;;;;;;5081061;28;20103;-66
2024/02/01 04:08:48;;;;;;;2.08;1.40;;;19.60;51.00;;;;;;5081074;28;20423;-66
2024/02/01 04:11:13;;;;;;;1.65;1.20;;;19.50;51.00;;;;;;5079338;28;20093;-67
2024/02/01 04:13:40;;;;;;;2.20;1.48;;;19.60;51.10;;;;;;5078623;28;20487;-66
2024/02/01 04:16:06;;;;;;;2.20;1.60;;;19.60;51.10;;;;;;5062472;28;20032;-66
2024/02/01 04:18:32;;;;;;;2.20;1.50;;;19.50;51.00;;;;;;5081638;28;20510;-66
2024/02/01 04:20:58;;;;;;;2.17;1.40;;;19.60;51.10;;;;;;5080441;28;20400;-66
2024/02/01 04:23:24;;;;;;;1.77;1.38;;;19.50;51.00;;;;;;5080632;28;20051;-65
2024/02/01 04:25:50;;;;;;;2.30;1.70;;;19.50;51.10;;;;;;5081292;28;20381;-66
2024/02/01 04:28:18;;;;;;;2.00;1.40;;;19.60;51.70;;;;;;5081071;28;20024;-65
2024/02/01 04:30:50;;;;;;;2.35;1.50;;;19.50;51.10;;;;;;5080290;28;20047;-66
2024/02/01 04:33:17;;;;;;;2.53;1.65;;;19.60;51.10;;;;;;5078922;28;20170;-64
2024/02/01 04:35:44;;;;;;;2.20;1.50;;;19.50;51.20;;;;;;5079605;28;20107;-63
2024/02/01 04:38:09;;;;;;;2.20;1.40;;;19.60;51.30;;;;;;5082078;28;20488;-62
2024/02/01 04:40:35;;;;;;;2.03;1.50;;;19.50;51.70;;;;;;5079200;28;20031;-63
2024/02/01 04:43:02;;;;;;;2.35;1.50;;;19.50;51.20;;;;;;5061121;28;20039;-69
2024/02/01 04:45:28;;;;;;;2.10;1.48;;;19.50;51.20;;;;;;5079685;28;20044;-68
2024/02/01 04:47:53;;;;;;;2.00;1.55;;;19.50;51.20;;;;;;5080927;28;20487;-69
2024/02/01 04:50:19;;;;;;;2.33;1.50;;;19.50;51.30;;;;;;5078692;28;20024;-68
2024/02/01 04:52:44;;;;;;;2.40;1.40;;;19.50;51.40;;;;;;5081427;28;20107;-65
2024/02/01 04:55:10;;;;;;;2.25;1.50;;;19.50;51.30;;;;;;5080427;28;20056;-65
2024/02/01 04:57:40;;;;;;;2.05;1.50;;;19.50;51.40;;;;;;5077004;28;20031;-66
2024/02/01 05:00:14;;;;;;;2.00;1.40;;;19.50;51.50;;;;;;5079583;28;20614;-65
2024/02/01 05:02:40;;;;;;;2.30;1.50;;;19.50;51.40;;;;;;5096931;28;20476;-65
2024/02/01 05:05:07;;;;;;;2.40;1.52;;;19.50;51.30;;;;;;5078816;28;20025;-65
2024/02/01 05:07:36;;;;;;;2.50;1.70;;;19.50;51.50;;;;;;5083112;28;20378;-65
2024/02/01 05:10:03;;;;;;;2.17;1.65;;;19.50;51.60;;;;;;5070437;28;20391;-66
2024/02/01 05:12:29;;;;;;;1.98;1.50;;;19.50;51.70;;;;;;5079273;28;20491;-65
2024/02/01 05:14:54;;;;;;;1.98;1.40;;;19.50;51.80;;;;;;5078414;28;20032;-65
2024/02/01 05:17:20;;;;;;;2.42;1.65;;;19.50;51.80;;;;;;5076438;28;20037;-66
2024/02/01 05:19:46;;;;;;;2.80;1.55;;;19.50;51.90;;;;;;5081483;28;20036;-65
2024/02/01 05:22:11;;;;;;;2.03;1.38;;;19.50;52.00;;;;;;5079185;28;20032;-66
2024/02/01 05:24:37;;;;;;;2.33;1.45;;;19.50;51.90;;;;;;5078681;28;20116;-66
2024/02/01 05:27:07;;;;;;;2.15;1.50;;;19.50;51.80;;;;;;5077559;28;20035;-66
2024/02/01 05:29:34;;;;;;;2.22;1.50;;;19.50;51.80;;;;;;5076866;28;20032;-65
2024/02/01 05:32:00;;;;;;;2.15;1.63;;;19.50;51.80;;;;;;5079107;28;20091;-65
2024/02/01 05:34:26;;;;;;;2.15;1.40;;;19.50;51.80;;;;;;5079568;28;20148;-65
2024/02/01 05:36:52;;;;;;;2.58;1.58;;;19.50;51.80;;;;;;5069497;28;20040;-65
2024/02/01 05:39:25;;;;;;;2.20;1.63;;;19.50;51.80;;;;;;5079704;28;20106;-66
2024/02/01 05:41:55;;;;;;;2.47;1.50;;;19.50;51.80;;;;;;5059983;28;20207;-70
2024/02/01 05:44:21;;;;;;;2.20;1.40;;;19.50;51.80;;;;;;5079117;28;20028;-69
2024/02/01 05:46:49;;;;;;;3.38;1.50;;;19.50;51.90;;;;;;5079206;28;20165;-68
2024/02/01 05:49:18;;;;;;;3.70;2.20;;;19.50;52.40;;;;;;5079669;28;20018;-70
2024/02/01 05:51:52;;;;;;;2.27;1.40;;;19.50;51.80;;;;;;5079460;28;20019;-64
2024/02/01 05:54:19;;;;;;;2.58;1.70;;;19.50;51.80;;;;;;5095626;28;20043;-62
2024/02/01 05:56:46;;;;;;;2.65;1.42;;;19.50;51.90;;;;;;5069842;28;20033;-62
2024/02/01 05:59:16;;;;;;;2.72;1.60;;;19.50;51.90;;;;;;5067434;28;20112;-62
2024/02/01 06:01:46;;;;;;;2.50;1.67;;;19.50;51.90;;;;;;5078759;28;20391;-67
2024/02/01 06:04:13;;;;;;;2.75;1.60;;;19.50;51.90;;;;;;5077816;28;20495;-67
2024/02/01 06:06:40;;;;;;;2.88;1.83;;;19.50;51.90;;;;;;5077957;28;20028;-67
2024/02/01 06:09:12;;;;;;;3.70;1.95;;;19.50;51.90;;;;;;5078721;28;20380;-67
2024/02/01 06:11:42;;;;;;;4.03;1.70;;;19.50;51.90;;;;;;5080544;28;20098;-67
2024/02/01 06:14:08;;;;;;;3.05;2.00;;;19.50;52.00;;;;;;5077821;28;20036;-67
2024/02/01 06:16:34;;;;;;;3.03;1.70;;;19.50;52.10;;;;;;5078645;28;20430;-67
2024/02/01 06:19:00;;;;;;;4.07;2.08;;;19.50;52.30;;;;;;5080555;28;20437;-67
2024/02/01 06:21:26;;;;;;;4.10;2.20;;;19.50;52.50;;;;;;5073585;28;20060;-67
2024/02/01 06:23:52;;;;;;;3.45;2.00;;;19.50;52.60;;;;;;5076841;28;20464;-67
2024/02/01 06:26:19;;;;;;;3.70;2.13;;;19.50;52.60;;;;;;5077529;28;20089;-67
2024/02/01 06:28:45;;;;;;;6.40;2.00;;;19.60;52.70;;;;;;5077594;28;20082;-67
2024/02/01 06:31:13;;;;;;;4.18;2.10;;;19.50;52.60;;;;;;5077639;28;20021;-68
2024/02/01 06:33:40;;;;;;;3.78;2.10;;;19.60;52.70;;;;;;5079367;28;20016;-66
2024/02/01 06:36:07;;;;;;;4.43;2.40;;;19.60;52.80;;;;;;5077730;28;20107;-66
2024/02/01 06:38:50;;;;;;;4.47;2.20;;;19.60;53.00;;;;;;5079476;28;20507;-67
2024/02/01 06:41:28;;;;;;;3.88;2.30;;;19.60;53.10;;;;;;5068291;28;20131;-67
2024/02/01 06:52:13;;;;;;;3.22;1.88;;;19.80;52.80;;;;;;5077029;28;20021;-67
2024/02/01 06:54:55;;;;;;;3.95;2.13;;;19.90;52.70;;;;;;5097824;28;20042;-67
2024/02/01 06:57:34;;;;;;;3.45;1.98;;;20.00;52.70;;;;;;5082729;28;20027;-67
2024/02/01 07:02:35;;;;;;;3.30;2.30;;;20.10;52.40;;;;;;5083207;28;20034;-67
2024/02/01 07:05:25;;;;;;;3.15;1.90;;;20.10;52.30;;;;;;5081836;28;20024;-67
2024/02/01 07:08:01;;;;;;;2.92;1.95;;;20.20;52.20;;;;;;5082411;28;20127;-67
2024/02/01 07:10:43;;;;;;;3.42;1.95;;;20.30;52.10;;;;;;5083022;28;20185;-67
2024/02/01 07:13:21;;;;;;;3.78;2.00;;;20.30;52.00;;;;;;5079346;28;20039;-65
2024/02/01 07:16:04;;;;;;;3.55;2.00;;;20.40;51.90;;;;;;5080235;28;20507;-65
2024/02/01 07:18:30;;;;;;;4.15;2.00;;;20.50;51.80;;;;;;5083297;28;20088;-65
2024/02/01 07:20:58;;;;;;;3.65;1.90;;;20.50;52.10;;;;;;5079172;28;20039;-65
2024/02/01 07:23:34;;;;;;;3.10;1.98;;;20.60;52.10;;;;;;5079689;28;20028;-65
2024/02/01 07:26:16;;;;;;;3.58;1.90;;;20.70;52.10;;;;;;5080379;28;20021;-65
2024/02/01 07:59:02;;;;;;;3.42;1.95;;;20.70;50.70;;;;;;5079334;28;20414;-65
2024/02/01 08:01:37;;;;;;;2.55;1.67;;;20.70;50.70;;;;;;5080469;28;20038;-65
2024/02/01 08:07:44;;;;;;;3.38;2.10;;;20.70;50.90;;;;;;5083121;28;20425;-66
2024/02/01 08:09:33;;;;;;;3.05;1.80;;;20.70;50.50;;;;;;5081640;28;20496;-66
2024/02/01 08:11:59;;;;;;;3.58;1.95;;;20.70;50.40;;;;;;5080259;28;20028;-69
2024/02/01 08:14:24;;;;;;;4.03;2.05;;;20.80;50.50;;;;;;5078736;28;20955;-62
2024/02/01 08:16:50;;;;;;;2.75;1.73;;;20.80;50.50;;;;;;5071783;28;20040;-65
2024/02/01 08:19:20;;;;;;;2.60;1.73;;;20.80;50.40;;;;;;5082589;28;20121;-64
2024/02/01 08:21:46;;;;;;;2.50;1.70;;;20.80;50.40;;;;;;5080079;28;20035;-63
2024/02/01 08:24:12;;;;;;;3.33;1.70;;;20.80;50.40;;;;;;5079770;28;20054;-68
2024/02/01 08:26:37;;;;;;;2.63;1.70;;;20.80;50.40;;;;;;5081426;28;20028;-68
2024/02/01 08:29:17;;;;;;;3.30;1.80;;;20.80;50.40;;;;;;5078847;28;20448;-68
2024/02/01 08:31:43;;;;;;;3.05;1.80;;;20.80;50.50;;;;;;5081773;28;20031;-67
2024/02/01 08:34:14;;;;;;;3.10;1.80;;;20.80;50.50;;;;;;5081067;28;20024;-67
2024/02/01 08:36:43;;;;;;;3.13;1.88;;;20.80;50.50;;;;;;5079020;28;20020;-68
2024/02/01 08:39:09;;;;;;;4.00;1.88;;;20.80;50.50;;;;;;5080464;28;20515;-67
2024/02/01 08:41:37;;;;;;;2.90;1.60;;;20.90;50.40;;;;;;5080102;28;20474;-67
2024/02/01 08:44:03;;;;;;;2.78;1.70;;;20.90;50.90;;;;;;5077326;28;20095;-67
2024/02/01 08:46:29;;;;;;;3.47;1.73;;;20.90;50.50;;;;;;5095106;28;20029;-68
2024/02/01 08:48:55;;;;;;;3.47;1.63;;;20.90;50.40;;;;;;5081308;28;20055;-67
2024/02/01 08:51:20;;;;;;;3.28;1.75;;;20.90;50.40;;;;;;5080136;28;20028;-68
2024/02/01 08:53:46;;;;;;;3.28;1.70;;;20.90;50.40;;;;;;5080023;28;20123;-67
2024/02/01 08:56:12;;;;;;;2.45;1.60;;;20.90;50.40;;;;;;5077937;28;20039;-67
2024/02/01 08:58:38;;;;;;;3.50;1.90;;;20.90;50.30;;;;;;5078174;28;20028;-67
2024/02/01 09:01:04;;;;;;;3.25;1.90;;;20.90;50.20;;;;;;5078745;28;20032;-68
2024/02/01 09:03:32;;;;;;;2.35;1.50;;;20.90;50.20;;;;;;5062406;28;20027;-67
2024/02/01 09:06:08;;;;;;;2.85;1.70;;;20.90;50.20;;;;;;5082050;28;20413;-67
2024/02/01 09:08:39;;;;;;;3.30;1.58;;;21.00;50.30;;;;;;5079483;28;20387;-67
2024/02/01 09:11:12;;;;;;;2.78;1.80;;;21.00;50.20;;;;;;5069680;28;20050;-68
2024/02/01 09:13:45;;;;;;;3.47;1.83;;;20.90;50.20;;;;;;5069787;28;20051;-69
2024/02/01 09:16:19;;;;;;;3.00;1.77;;;20.90;50.10;;;;;;5079292;28;20115;-69
2024/02/01 09:18:44;;;;;;;2.55;1.58;;;21.00;50.20;;;;;;5078793;28;20040;-70
2024/02/01 09:21:10;;;;;;;2.63;1.50;;;21.00;50.20;;;;;;5079213;28;20036;-69
2024/02/01 09:23:36;;;;;;;3.28;1.70;;;20.90;50.20;;;;;;5079492;28;20025;-64
2024/02/01 09:26:01;;;;;;;2.70;1.60;;;21.00;50.20;;;;;;5082167;28;20028;-65
2024/02/01 09:28:27;;;;;;;3.10;1.98;;;21.00;50.20;;;;;;5079609;28;20032;-63
2024/02/01 09:30:55;;;;;;;2.65;1.40;;;21.00;50.20;;;;;;5059506;28;20032;-63
2024/02/01 09:33:25;;;;;;;2.92;1.60;;;21.00;50.20;;;;;;5080391;28;20029;-68
2024/02/01 09:35:52;;;;;;;3.03;1.80;;;21.00;50.20;;;;;;5079546;28;20039;-68
2024/02/01 09:38:19;;;;;;;3.03;1.60;;;21.00;50.20;;;;;;5080496;28;20029;-69
2024/02/01 09:40:45;;;;;;;3.15;1.70;;;21.00;50.10;;;;;;5080259;28;20055;-69
2024/02/01 09:43:21;;;;;;;2.90;1.90;;;21.00;50.10;;;;;;5077264;28;20032;-69
2024/02/01 09:45:52;;;;;;;2.80;1.70;;;21.00;50.00;;;;;;5080025;28;20087;-68
2024/02/01 09:48:21;;;;;;;2.90;2.00;;;21.00;50.50;;;;;;5079349;28;20099;-69
2024/02/01 09:50:51;;;;;;;3.00;1.77;;;21.00;49.90;;;;;;5078103;28;20392;-70
2024/02/01 09:53:26;;;;;;;3.30;1.77;;;21.10;49.90;;;;;;5080372;28;20098;-68
2024/02/01 09:55:59;;;;;;;4.80;2.08;;;21.10;50.60;;;;;;5077463;28;20024;-68
2024/02/01 09:58:28;;;;;;;2.85;1.45;;;21.60;50.30;;;;;;5079750;28;20107;-69
2024/02/01 10:00:54;;;;;;;;;;;22.00;49.60;;;;;;5078569;28;20032;-68
2024/02/01 10:03:23;;;;;;;2.65;1.50;;;22.40;49.20;;;;;;5069658;28;20284;-68
2024/02/01 10:05:50;;;;;;;2.45;1.40;;;22.80;48.80;;;;;;5078071;28;20103;-68
2024/02/01 10:08:17;;;;;;;2.08;1.20;;;23.10;48.50;;;;;;5079275;28;20127;-68
2024/02/01 10:10:48;;;;;;;1.70;1.20;;;23.30;48.40;;;;;;5079355;28;20035;-68
2024/02/01 10:13:16;;;;;;;2.22;1.30;;;23.50;48.10;;;;;;5080074;28;20111;-68
2024/02/01 10:15:46;;;;;;;3.08;1.30;;;23.70;48.00;;;;;;5077515;28;20090;-69
2024/02/01 10:18:19;;;;;;;3.05;1.70;;;23.60;47.50;;;;;;5078932;28;20032;-69
2024/02/01 10:20:49;;;;;;;2.60;1.70;;;23.30;46.40;;;;;;5078304;28;20115;-69
2024/02/01 10:23:15;;;;;;;3.05;1.90;;;23.10;46.20;;;;;;5077213;28;20388;-67
2024/02/01 10:25:44;;;;;;;2.47;1.50;;;22.90;46.50;;;;;;5078729;28;20025;-67
2024/02/01 10:28:13;;;;;;;2.92;1.70;;;22.80;46.60;;;;;;5077344;28;20024;-67
2024/02/01 10:30:41;;;;;;;2.58;1.73;;;22.70;46.80;;;;;;5076360;28;20630;-67
2024/02/01 10:33:09;;;;;;;2.70;1.60;;;22.60;47.00;;;;;;5077624;28;20017;-67
2024/02/01 10:35:36;;;;;;;2.50;1.60;;;22.50;47.50;;;;;;5076631;28;20101;-68
2024/02/01 10:38:13;;;;;;;3.15;1.70;;;22.50;48.00;;;;;;5075330;28;20029;-68
2024/02/01 10:40:53;;;;;;;2.20;1.40;;;22.50;48.30;;;;;;5079525;28;20033;-67
2024/02/01 10:43:28;;;;;;;2.03;1.40;;;22.50;48.60;;;;;;5079201;28;20464;-67
2024/02/01 10:46:05;;;;;;;2.35;1.35;;;22.60;48.80;;;;;;5079032;28;20107;-67
2024/02/01 10:48:33;;;;;;;1.90;1.30;;;22.50;49.00;;;;;;5081200;28;20548;-66
2024/02/01 10:51:09;;;;;;;1.85;1.25;;;22.60;49.10;;;;;;5079930;28;20025;-67
2024/02/01 10:53:45;;;;;;;1.83;1.30;;;22.60;49.30;;;;;;5076438;28;20135;-67
2024/02/01 10:56:18;;;;;;;2.00;1.30;;;22.60;49.50;;;;;;5079158;28;20476;-67
2024/02/01 10:58:51;;;;;;;3.10;1.73;;;22.60;49.60;;;;;;5078359;28;20063;-67
2024/02/01 11:01:24;;;;;;;2.80;1.67;;;22.60;49.70;;;;;;5078452;28;20503;-67
2024/02/01 11:03:50;;;;;;;2.10;1.30;;;22.60;49.80;;;;;;5078003;28;20579;-67
2024/02/01 11:06:17;;;;;;;2.38;1.50;;;22.60;50.40;;;;;;5079017;28;20427;-67
2024/02/01 11:08:46;;;;;;;2.67;1.70;;;22.70;50.50;;;;;;5077665;28;20013;-67
2024/02/01 11:11:18;;;;;;;2.50;1.50;;;22.60;50.00;;;;;;5078750;28;20028;-67
2024/02/01 11:14:06;;;;;;;2.78;1.77;;;22.70;50.20;;;;;;5077832;28;20054;-67
2024/02/01 11:16:46;;;;;;;2.67;1.42;;;22.70;50.20;;;;;;5077253;28;20572;-67
2024/02/01 11:19:25;;;;;;;1.98;1.30;;;22.70;50.40;;;;;;5079185;28;20548;-67
2024/02/01 11:22:01;;;;;;;2.40;1.40;;;22.70;50.40;;;;;;5058878;28;20027;-67
2024/02/01 11:24:31;;;;;;;2.20;1.30;;;22.70;50.40;;;;;;5079491;28;20385;-67
2024/02/01 11:27:00;;;;;;;2.55;1.50;;;22.70;50.50;;;;;;5079522;28;20174;-67
2024/02/01 11:29:32;;;;;;;2.58;1.42;;;22.70;50.70;;;;;;5094604;28;20039;-67
2024/02/01 11:32:03;;;;;;;2.40;1.40;;;22.70;50.70;;;;;;5078459;28;20395;-67
2024/02/01 11:34:31;;;;;;;2.50;1.40;;;22.80;50.90;;;;;;5078883;28;20016;-68
2024/02/01 11:36:57;;;;;;;1.98;1.27;;;22.80;51.10;;;;;;5060662;28;20112;-67
2024/02/01 11:39:23;;;;;;;1.88;1.30;;;22.70;51.10;;;;;;5080046;28;20115;-67
2024/02/01 11:41:51;;;;;;;2.78;1.30;;;22.80;51.10;;;;;;5081088;28;20375;-67
2024/02/01 11:44:18;;;;;;;3.05;1.60;;;22.80;48.60;;;;;;5080961;28;20104;-67
2024/02/01 11:46:48;;;;;;;2.78;1.83;;;22.70;48.00;;;;;;5079579;28;20441;-68
2024/02/01 11:49:19;;;;;;;2.65;1.88;;;22.70;47.70;;;;;;5079998;28;20020;-67
2024/02/01 11:52:13;;;;;;;2.92;2.00;;;22.70;47.40;;;;;;5082265;28;20020;-67
2024/02/01 11:54:50;;;;;;;3.63;1.80;;;22.60;47.20;;;;;;5082183;28;20112;-67
2024/02/01 11:57:17;;;;;;;4.40;2.25;;;22.60;47.10;;;;;;5081463;28;20044;-66
2024/02/01 11:59:50;;;;;;;3.28;1.88;;;22.60;47.60;;;;;;5064378;28;20032;-66
2024/02/01 12:02:16;;;;;;;2.25;1.30;;;22.50;47.10;;;;;;5082692;28;20039;-66
2024/02/01 12:04:45;;;;;;;2.53;1.60;;;22.50;47.70;;;;;;5081388;28;20385;-65
2024/02/01 12:07:14;;;;;;;3.15;1.50;;;22.50;48.10;;;;;;5081828;28;20151;-65
2024/02/01 12:09:40;;;;;;;3.47;1.23;;;22.50;48.40;;;;;;5090603;28;20035;-65
2024/02/01 12:12:07;;;;;;;2.47;1.55;;;22.60;48.70;;;;;;5091185;28;20039;-66
2024/02/01 12:14:34;;;;;;;3.42;1.48;;;22.60;48.90;;;;;;5082998;28;20389;-66
2024/02/01 12:17:03;;;;;;;2.08;1.40;;;22.60;49.00;;;;;;5082205;28;20103;-65
2024/02/01 12:19:38;;;;;;;2.03;1.23;;;22.60;49.20;;;;;;5081629;28;20085;-66
2024/02/01 12:22:07;;;;;;;1.63;1.15;;;22.60;49.30;;;;;;5082836;28;20365;-67
2024/02/01 12:24:37;;;;;;;2.30;1.40;;;22.60;49.50;;;;;;5082314;28;20385;-65
2024/02/01 12:27:03;;;;;;;;;;;22.60;49.60;;;;;;5079286;28;20361;-66
2024/02/01 12:29:29;;;;;;;1.83;1.27;;;22.70;50.00;;;;;;5070759;28;19917;-66
2024/02/01 12:31:56;;;;;;;1.90;1.20;;;22.70;50.40;;;;;;5078224;28;20056;-66
2024/02/01 12:34:23;;;;;;;2.95;1.33;;;22.70;50.10;;;;;;5070806;28;20029;-66
2024/02/01 12:36:49;;;;;;;2.38;1.40;;;22.70;50.20;;;;;;5071190;28;20028;-66
2024/02/01 12:39:15;;;;;;;1.85;1.30;;;22.70;50.30;;;;;;5081893;28;20487;-66
2024/02/01 12:41:42;;;;;;;1.67;1.20;;;22.80;50.30;;;;;;5079435;28;20594;-66
2024/02/01 12:44:08;;;;;;;1.83;1.20;;;22.70;50.40;;;;;;5081569;28;20286;-63
2024/02/01 12:46:34;;;;;;;2.20;1.17;;;22.80;50.50;;;;;;5076892;28;20519;-62
2024/02/01 12:49:04;;;;;;;2.78;1.50;;;22.80;50.50;;;;;;5062212;28;20023;-62
2024/02/01 12:51:30;;;;;;;1.92;1.20;;;22.80;50.60;;;;;;5064435;28;20056;-63
2024/02/01 12:53:58;;;;;;;1.45;1.00;;;22.80;50.60;;;;;;5097068;28;20472;-63
2024/02/01 12:56:25;;;;;;;1.75;1.20;;;22.80;50.70;;;;;;5079893;28;20426;-63
2024/02/01 12:58:52;;;;;;;1.90;1.20;;;22.90;50.80;;;;;;5078428;28;20084;-63
2024/02/01 13:01:19;;;;;;;1.63;1.20;;;22.90;50.80;;;;;;5080427;28;20047;-62
2024/02/01 13:03:47;;;;;;;2.63;1.30;;;22.90;50.80;;;;;;5053382;28;20101;-67
2024/02/01 13:06:16;;;;;;;1.75;1.10;;;22.90;50.90;;;;;;5078009;28;20081;-67
2024/02/01 13:08:43;;;;;;;1.60;1.10;;;22.90;50.90;;;;;;5078869;28;20020;-67
2024/02/01 13:11:09;;;;;;;2.78;1.40;;;23.00;51.00;;;;;;5079507;28;20026;-67
2024/02/01 13:13:35;;;;;;;1.67;1.10;;;22.90;50.90;;;;;;5079207;28;20468;-67
2024/02/01 13:16:01;;;;;;;1.80;1.10;;;23.00;50.90;;;;;;5077668;28;20031;-67
2024/02/01 13:18:27;;;;;;;2.15;1.40;;;23.00;50.60;;;;;;5077168;28;20442;-67
2024/02/01 13:20:55;;;;;;;1.52;0.98;;;23.00;50.50;;;;;;5078576;28;20040;-68
2024/02/01 13:23:22;;;;;;;1.45;1.10;;;23.00;50.50;;;;;;5079473;28;20020;-67
2024/02/01 13:25:48;;;;;;;1.42;1.10;;;23.00;50.60;;;;;;5079505;28;20036;-67
2024/02/01 13:28:14;;;;;;;1.90;1.20;;;23.00;50.90;;;;;;5078812;28;20473;-67
2024/02/01 13:30:39;;;;;;;1.95;1.00;;;23.00;50.90;;;;;;5077695;28;20024;-67
2024/02/01 13:33:06;;;;;;;1.25;1.00;;;23.00;50.90;;;;;;5078947;28;20039;-67
2024/02/01 13:35:36;;;;;;;1.50;1.10;;;23.00;51.00;;;;;;5060447;28;20032;-68
2024/02/01 13:38:05;;;;;;;;;;;23.10;51.10;;;;;;5078642;28;20020;-67